Time;durP1;ratioP1;P1;durP2;ratioP2;P2;SDS_P1;SDS_P2;PMS_P1;PMS_P2;Temp;Humidity;BMP_temperature;BMP_pressure;BME280_temperature;BME280_humidity;BME280_pressure;Samples;Min_cycle;Max_cycle;Signal;HPM_P1;HPM_P2
2022/11/06 00:01:55;;;;;;;21.73;14.23;;;;;;;;;;5044075;28;20108;-69
2022/11/06 00:04:21;;;;;;;21.85;13.70;;;;;;;;;;5054394;28;20497;-70
2022/11/06 00:06:47;;;;;;;24.98;15.20;;;;;;;;;;5047636;28;20493;-70
2022/11/06 00:09:14;;;;;;;26.55;13.57;;;;;;;;;;5049788;28;20421;-69
2022/11/06 00:11:41;;;;;;;21.13;13.90;;;;;;;;;;5048218;28;20032;-69
2022/11/06 00:14:08;;;;;;;25.77;13.68;;;;;;;;;;5045190;28;20150;-70
2022/11/06 00:16:37;;;;;;;18.02;13.63;;;;;;;;;;5043080;28;20027;-70
2022/11/06 00:19:03;;;;;;;22.08;14.70;;;;;;;;;;5047661;28;20136;-70
2022/11/06 00:21:30;;;;;;;21.10;13.68;;;;;;;;;;5060805;28;20032;-70
2022/11/06 00:23:58;;;;;;;28.42;14.55;;;;;;;;;;5049115;28;20033;-69
2022/11/06 00:26:25;;;;;;;21.25;14.30;;;;;;;;;;5049915;28;20029;-70
2022/11/06 00:28:51;;;;;;;22.38;14.32;;;;;;;;;;5050633;28;20071;-70
2022/11/06 00:31:20;;;;;;;22.83;15.18;;;;;;;;;;5050886;28;20033;-70
2022/11/06 00:33:46;;;;;;;25.38;14.60;;;;;;;;;;5061322;28;20082;-70
2022/11/06 00:36:17;;;;;;;22.05;13.77;;;;;;;;;;5077342;28;20032;-69
2022/11/06 00:38:43;;;;;;;19.10;12.75;;;;;;;;;;5043345;28;20042;-70
2022/11/06 00:41:14;;;;;;;19.52;12.95;;;;;;;;;;5017264;28;20372;-70
2022/11/06 00:43:41;;;;;;;20.15;13.48;;;;;;;;;;5011670;28;20029;-70
2022/11/06 00:46:09;;;;;;;23.40;14.45;;;;;;;;;;5017397;28;20033;-70
2022/11/06 00:48:36;;;;;;;21.95;12.02;;;;;;;;;;5017795;28;20050;-70
2022/11/06 00:51:23;;;;;;;20.02;12.02;;;;;;;;;;5015105;28;20663;-69
2022/11/06 00:53:57;;;;;;;23.35;12.80;;;;;;;;;;5011224;28;20140;-70
2022/11/06 00:56:23;;;;;;;18.15;12.55;;;;;;;;;;5029122;28;20087;-70
2022/11/06 00:58:49;;;;;;;20.38;12.02;;;;;;;;;;5056801;28;20028;-70
2022/11/06 01:01:19;;;;;;;19.75;12.27;;;;;;;;;;5056690;28;20037;-69
2022/11/06 01:03:47;;;;;;;18.20;11.82;;;;;;;;;;5055311;28;20176;-69
2022/11/06 01:06:16;;;;;;;21.23;11.20;;;;;;;;;;5056541;28;20048;-71
2022/11/06 01:08:42;;;;;;;16.42;10.00;;;;;;;;;;5054310;28;20359;-70
2022/11/06 01:11:11;;;;;;;17.38;10.32;;;;;;;;;;5054702;28;20037;-70
2022/11/06 01:13:37;;;;;;;16.92;10.45;;;;;;;;;;5054725;28;20478;-69
2022/11/06 01:16:11;;;;;;;16.88;9.73;;;;;;;;;;5060097;28;20036;-71
2022/11/06 01:18:39;;;;;;;18.40;10.73;;;;;;;;;;5048990;28;20499;-70
2022/11/06 01:21:07;;;;;;;20.73;11.02;;;;;;;;;;5055681;28;20079;-69
2022/11/06 01:23:34;;;;;;;16.83;10.77;;;;;;;;;;5055334;28;20154;-70
2022/11/06 01:26:01;;;;;;;19.15;10.50;;;;;;;;;;5056539;28;20027;-70
2022/11/06 01:28:28;;;;;;;21.48;11.40;;;;;;;;;;5056990;28;20486;-69
2022/11/06 01:30:54;;;;;;;17.08;11.43;;;;;;;;;;5056464;28;20039;-69
2022/11/06 01:33:20;;;;;;;19.08;10.50;;;;;;;;;;5055815;28;20399;-70
2022/11/06 01:35:47;;;;;;;16.50;11.35;;;;;;;;;;5057087;28;20120;-70
2022/11/06 01:38:14;;;;;;;22.23;14.15;;;;;;;;;;5056882;28;20088;-70
2022/11/06 01:40:41;;;;;;;21.95;14.15;;;;;;;;;;5055872;28;20474;-69
2022/11/06 01:43:48;;;;;;;19.13;12.10;;;;;;;;;;5055016;28;20024;-70
2022/11/06 01:46:16;;;;;;;17.85;11.60;;;;;;;;;;5034351;28;20378;-69
2022/11/06 01:48:47;;;;;;;20.23;12.23;;;;;;;;;;5053214;28;20381;-68
2022/11/06 01:51:13;;;;;;;21.33;13.07;;;;;;;;;;5053633;28;20170;-69
2022/11/06 01:53:40;;;;;;;21.38;12.02;;;;;;;;;;5053203;28;20025;-69
2022/11/06 01:56:12;;;;;;;18.20;11.90;;;;;;;;;;5053236;28;20033;-69
2022/11/06 01:58:40;;;;;;;22.05;12.10;;;;;;;;;;5053265;28;20040;-69
2022/11/06 02:01:12;;;;;;;20.55;12.73;;;;;;;;;;5048856;28;20031;-69
2022/11/06 02:03:44;;;;;;;18.80;12.85;;;;;;;;;;5053510;28;20061;-69
2022/11/06 02:06:10;;;;;;;23.05;13.02;;;;;;;;;;5053571;28;20093;-69
2022/11/06 02:08:36;;;;;;;19.42;12.63;;;;;;;;;;5047214;28;20045;-70
2022/11/06 02:11:02;;;;;;;18.85;11.80;;;;;;;;;;5035527;28;20402;-69
2022/11/06 02:13:58;;;;;;;19.05;12.32;;;;;;;;;;5053026;28;20025;-69
2022/11/06 02:16:50;;;;;;;16.48;11.18;;;;;;;;;;5053197;28;20032;-69
2022/11/06 02:19:50;;;;;;;18.10;11.50;;;;;;;;;;5046572;28;20111;-69
2022/11/06 02:22:43;;;;;;;15.70;10.32;;;;;;;;;;5053077;28;20049;-70
2022/11/06 02:25:15;;;;;;;17.75;10.30;;;;;;;;;;5051818;28;20041;-70
2022/11/06 02:27:47;;;;;;;18.30;10.43;;;;;;;;;;5048435;28;20048;-69
2022/11/06 02:30:15;;;;;;;15.00;10.13;;;;;;;;;;5054481;28;20099;-70
2022/11/06 02:32:52;;;;;;;19.42;11.02;;;;;;;;;;5052980;28;20033;-69
2022/11/06 02:35:41;;;;;;;12.68;8.88;;;;;;;;;;5052726;28;20108;-68
2022/11/06 02:38:13;;;;;;;14.25;10.05;;;;;;;;;;5052567;28;20033;-68
2022/11/06 02:40:43;;;;;;;15.73;9.20;;;;;;;;;;5052600;28;20028;-69
2022/11/06 02:43:10;;;;;;;13.93;9.35;;;;;;;;;;5052510;28;20055;-69
2022/11/06 02:45:46;;;;;;;14.45;9.75;;;;;;;;;;5051019;28;20032;-69
2022/11/06 02:48:15;;;;;;;17.45;9.98;;;;;;;;;;5051788;28;20060;-70
2022/11/06 02:50:47;;;;;;;17.95;10.35;;;;;;;;;;5053249;28;20036;-70
2022/11/06 02:53:17;;;;;;;14.82;9.48;;;;;;;;;;5047663;28;20288;-70
2022/11/06 02:55:48;;;;;;;12.85;9.30;;;;;;;;;;5052242;28;20440;-70
2022/11/06 02:58:28;;;;;;;12.95;7.93;;;;;;;;;;5045760;28;20051;-69
2022/11/06 03:01:03;;;;;;;12.73;7.95;;;;;;;;;;5052317;28;20028;-70
2022/11/06 03:03:33;;;;;;;12.63;8.57;;;;;;;;;;5051606;28;20052;-69
2022/11/06 03:06:25;;;;;;;14.85;9.07;;;;;;;;;;5052163;28;20037;-69
2022/11/06 03:09:14;;;;;;;13.73;8.63;;;;;;;;;;5045730;28;20045;-69
2022/11/06 03:11:40;;;;;;;15.52;8.48;;;;;;;;;;5042445;28;20029;-69
2022/11/06 03:14:39;;;;;;;13.63;9.23;;;;;;;;;;5055090;28;20517;-68
2022/11/06 03:17:18;;;;;;;12.02;8.68;;;;;;;;;;5028291;28;20379;-69
2022/11/06 03:19:54;;;;;;;11.48;8.02;;;;;;;;;;5054244;28;20546;-70
2022/11/06 03:22:26;;;;;;;12.88;8.18;;;;;;;;;;5047497;28;20029;-70
2022/11/06 03:25:02;;;;;;;11.73;7.50;;;;;;;;;;5043469;28;20083;-69
2022/11/06 03:27:34;;;;;;;13.20;7.50;;;;;;;;;;5041740;28;20053;-70
2022/11/06 03:30:05;;;;;;;12.47;7.93;;;;;;;;;;5050672;28;20071;-68
2022/11/06 03:32:45;;;;;;;15.13;8.10;;;;;;;;;;5048932;28;20029;-69
2022/11/06 03:35:23;;;;;;;13.48;7.25;;;;;;;;;;5054210;28;20512;-69
2022/11/06 03:38:06;;;;;;;11.85;6.65;;;;;;;;;;5051540;28;20043;-69
2022/11/06 03:40:39;;;;;;;12.05;7.45;;;;;;;;;;5053634;28;20094;-69
2022/11/06 03:43:07;;;;;;;11.43;6.70;;;;;;;;;;5051406;28;20115;-70
2022/11/06 03:45:35;;;;;;;11.82;6.72;;;;;;;;;;5052559;28;20037;-69
2022/11/06 03:48:08;;;;;;;9.77;6.35;;;;;;;;;;5049983;28;20070;-69
2022/11/06 03:50:42;;;;;;;11.82;6.78;;;;;;;;;;5046630;28;20034;-70
2022/11/06 03:53:22;;;;;;;11.38;6.63;;;;;;;;;;5050989;28;20025;-69
2022/11/06 03:55:53;;;;;;;14.55;7.40;;;;;;;;;;5045682;28;20025;-69
2022/11/06 03:58:28;;;;;;;13.50;6.68;;;;;;;;;;5043013;28;20033;-69
2022/11/06 04:00:58;;;;;;;9.57;6.47;;;;;;;;;;5050443;28;20454;-69
2022/11/06 04:03:38;;;;;;;12.55;7.25;;;;;;;;;;5049960;28;20427;-69
2022/11/06 04:06:11;;;;;;;11.68;7.50;;;;;;;;;;5048467;28;20029;-70
2022/11/06 04:14:14;;;;;;;16.55;10.35;;;;;;;;;;5046577;28;20028;-69
2022/11/06 04:16:48;;;;;;;13.25;8.80;;;;;;;;;;5034210;28;20040;-69
2022/11/06 04:19:20;;;;;;;12.77;8.55;;;;;;;;;;5049553;28;20061;-69
2022/11/06 04:22:01;;;;;;;17.60;10.13;;;;;;;;;;5046594;28;20087;-69
2022/11/06 04:27:41;;;;;;;12.55;8.18;;;;;;;;;;5039938;28;20147;-70
2022/11/06 04:30:13;;;;;;;15.18;8.57;;;;;;;;;;5043393;28;20030;-70
2022/11/06 04:33:03;;;;;;;12.15;7.18;;;;;;;;;;5050953;28;20037;-70
2022/11/06 04:35:48;;;;;;;13.43;8.00;;;;;;;;;;5048768;28;20045;-70
2022/11/06 04:38:23;;;;;;;11.05;7.13;;;;;;;;;;5046070;28;20035;-68
2022/11/06 04:41:04;;;;;;;10.70;7.75;;;;;;;;;;5046792;28;20075;-70
2022/11/06 04:43:50;;;;;;;13.55;8.02;;;;;;;;;;5045963;28;20508;-70
2022/11/06 04:46:22;;;;;;;13.38;8.15;;;;;;;;;;5042625;28;20047;-69
2022/11/06 04:48:48;;;;;;;13.98;8.25;;;;;;;;;;5048681;28;20029;-70
2022/11/06 04:51:20;;;;;;;10.35;7.47;;;;;;;;;;5051552;28;20021;-69
2022/11/06 04:53:48;;;;;;;11.30;8.13;;;;;;;;;;5051849;28;20032;-69
2022/11/06 04:56:22;;;;;;;12.30;8.48;;;;;;;;;;5044546;28;20029;-69
2022/11/06 04:58:48;;;;;;;13.52;8.70;;;;;;;;;;5052694;28;20107;-70
2022/11/06 05:01:14;;;;;;;13.73;8.65;;;;;;;;;;5048274;28;20060;-69
2022/11/06 05:03:40;;;;;;;11.82;8.45;;;;;;;;;;5057096;28;20025;-70
2022/11/06 05:06:06;;;;;;;13.15;9.07;;;;;;;;;;5049011;28;21124;-68
2022/11/06 05:08:31;;;;;;;12.65;9.10;;;;;;;;;;5040747;28;20434;-69
2022/11/06 05:10:57;;;;;;;13.80;8.77;;;;;;;;;;5047923;28;20021;-70
2022/11/06 05:13:23;;;;;;;12.75;7.53;;;;;;;;;;5046340;28;20041;-69
2022/11/06 05:15:55;;;;;;;14.38;8.30;;;;;;;;;;5056070;28;20028;-69
2022/11/06 05:18:21;;;;;;;13.00;8.68;;;;;;;;;;5041315;28;20041;-69
2022/11/06 05:20:47;;;;;;;13.85;9.50;;;;;;;;;;5030880;28;20029;-69
2022/11/06 05:23:12;;;;;;;12.55;8.90;;;;;;;;;;5034480;28;20026;-70
2022/11/06 05:25:39;;;;;;;11.23;8.18;;;;;;;;;;5034886;28;20387;-70
2022/11/06 05:28:07;;;;;;;14.90;8.75;;;;;;;;;;5034946;28;20040;-69
2022/11/06 05:30:34;;;;;;;12.55;8.88;;;;;;;;;;5035034;28;20018;-69
2022/11/06 05:33:00;;;;;;;13.07;8.88;;;;;;;;;;5034657;28;20401;-70
2022/11/06 05:35:26;;;;;;;13.48;8.73;;;;;;;;;;5034540;28;20401;-70
2022/11/06 05:38:02;;;;;;;12.38;8.70;;;;;;;;;;5034491;28;20038;-68
2022/11/06 05:40:28;;;;;;;11.48;8.70;;;;;;;;;;5034554;28;20025;-70
2022/11/06 05:42:54;;;;;;;15.07;9.05;;;;;;;;;;5033833;28;20029;-70
2022/11/06 05:45:20;;;;;;;16.58;8.48;;;;;;;;;;5034391;28;20049;-70
2022/11/06 05:47:46;;;;;;;14.40;8.68;;;;;;;;;;5038124;28;20033;-69
2022/11/06 05:50:12;;;;;;;15.38;8.52;;;;;;;;;;5054178;28;20509;-70
2022/11/06 05:52:37;;;;;;;12.68;8.27;;;;;;;;;;5054502;28;20036;-70
2022/11/06 05:55:05;;;;;;;13.23;8.60;;;;;;;;;;5054433;28;20059;-70
2022/11/06 05:57:31;;;;;;;12.23;7.97;;;;;;;;;;5054265;28;20033;-70
2022/11/06 05:59:57;;;;;;;13.95;7.72;;;;;;;;;;5036572;28;20041;-70
2022/11/06 06:02:23;;;;;;;12.55;8.02;;;;;;;;;;5052991;28;20104;-69
2022/11/06 06:04:49;;;;;;;13.13;8.30;;;;;;;;;;5053843;28;20037;-70
2022/11/06 06:07:14;;;;;;;12.68;7.50;;;;;;;;;;5053788;28;20020;-70
2022/11/06 06:09:40;;;;;;;14.43;8.10;;;;;;;;;;5053902;28;20033;-70
2022/11/06 06:12:09;;;;;;;13.57;8.10;;;;;;;;;;5053974;28;20063;-70
2022/11/06 06:14:35;;;;;;;11.77;7.88;;;;;;;;;;5053539;28;20048;-69
2022/11/06 06:17:01;;;;;;;16.98;8.52;;;;;;;;;;5053037;28;20053;-70
2022/11/06 06:19:27;;;;;;;14.32;8.52;;;;;;;;;;5053362;28;20036;-69
2022/11/06 06:21:53;;;;;;;12.65;8.40;;;;;;;;;;5052125;28;20037;-69
2022/11/06 06:24:19;;;;;;;13.35;8.70;;;;;;;;;;5053590;28;20025;-70
2022/11/06 06:26:45;;;;;;;14.73;8.98;;;;;;;;;;5053376;28;20451;-70
2022/11/06 06:29:10;;;;;;;15.23;9.35;;;;;;;;;;5053304;28;20033;-69
2022/11/06 06:31:36;;;;;;;13.73;9.25;;;;;;;;;;5053535;28;20040;-69
2022/11/06 06:34:02;;;;;;;15.25;8.90;;;;;;;;;;5052555;28;20029;-70
2022/11/06 06:36:28;;;;;;;15.02;9.25;;;;;;;;;;5053336;28;20375;-69
2022/11/06 06:38:54;;;;;;;18.92;9.40;;;;;;;;;;5053576;28;20041;-69
2022/11/06 06:41:20;;;;;;;18.08;9.38;;;;;;;;;;5053110;28;20027;-69
2022/11/06 06:43:49;;;;;;;16.13;9.40;;;;;;;;;;5053157;28;20025;-69
2022/11/06 06:46:15;;;;;;;14.05;8.95;;;;;;;;;;5051817;28;20398;-70
2022/11/06 06:48:41;;;;;;;14.27;8.85;;;;;;;;;;5052797;28;20051;-70
2022/11/06 06:51:08;;;;;;;19.67;10.10;;;;;;;;;;5053271;28;20021;-69
2022/11/06 06:53:37;;;;;;;16.77;9.55;;;;;;;;;;5052770;28;20035;-70
2022/11/06 06:56:03;;;;;;;13.65;9.50;;;;;;;;;;5052962;28;20028;-70
2022/11/06 06:58:30;;;;;;;14.82;8.98;;;;;;;;;;5052791;28;20035;-70
2022/11/06 07:01:03;;;;;;;16.83;9.20;;;;;;;;;;5051305;28;20017;-70
2022/11/06 07:03:30;;;;;;;20.17;10.18;;;;;;;;;;5052431;28;20041;-70
2022/11/06 07:05:57;;;;;;;16.25;10.52;;;;;;;;;;5052423;28;20025;-70
2022/11/06 07:08:27;;;;;;;13.95;9.32;;;;;;;;;;5051940;28;20060;-70
2022/11/06 07:11:00;;;;;;;15.35;8.98;;;;;;;;;;5049114;28;20036;-70
2022/11/06 07:13:26;;;;;;;18.50;8.98;;;;;;;;;;5053657;28;20044;-70
2022/11/06 07:15:52;;;;;;;15.98;9.50;;;;;;;;;;5057101;28;20392;-70
2022/11/06 07:18:18;;;;;;;19.77;10.05;;;;;;;;;;5063691;28;20049;-70
2022/11/06 07:20:44;;;;;;;19.35;10.10;;;;;;;;;;5052596;28;20098;-69
2022/11/06 07:23:10;;;;;;;17.98;10.40;;;;;;;;;;5052562;28;20033;-70
2022/11/06 07:25:36;;;;;;;28.65;10.35;;;;;;;;;;5052556;28;20047;-68
2022/11/06 07:28:39;;;;;;;20.17;9.95;;;;;;;;;;5051787;28;20036;-69
2022/11/06 07:31:06;;;;;;;24.05;10.50;;;;;;;;;;5052053;28;20031;-70
2022/11/06 07:33:33;;;;;;;17.35;9.70;;;;;;;;;;5054653;28;20025;-70
2022/11/06 07:36:09;;;;;;;15.77;10.57;;;;;;;;;;5053728;28;20025;-70
2022/11/06 07:38:36;;;;;;;19.02;9.75;;;;;;;;;;5056623;28;20056;-70
2022/11/06 07:41:08;;;;;;;23.65;10.27;;;;;;;;;;5056348;28;20020;-70
2022/11/06 07:43:34;;;;;;;15.63;9.38;;;;;;;;;;5055499;28;20066;-70
2022/11/06 07:46:02;;;;;;;20.50;9.48;;;;;;;;;;5052120;28;20027;-70
2022/11/06 07:48:30;;;;;;;24.58;10.07;;;;;;;;;;5052787;28;20033;-69
2022/11/06 07:50:56;;;;;;;15.98;8.18;;;;;;;;;;5061075;28;20025;-70
2022/11/06 07:53:23;;;;;;;14.68;8.32;;;;;;;;;;5072658;28;20086;-69
2022/11/06 07:55:50;;;;;;;13.02;8.10;;;;;;;;;;5072594;28;20024;-69
2022/11/06 07:58:16;;;;;;;14.75;8.65;;;;;;;;;;5072085;28;20505;-70
2022/11/06 08:00:47;;;;;;;14.15;8.57;;;;;;;;;;5072577;28;20431;-69
2022/11/06 08:03:13;;;;;;;12.05;7.97;;;;;;;;;;5066294;28;20029;-70
2022/11/06 08:05:38;;;;;;;13.80;8.30;;;;;;;;;;5066615;28;20028;-70
2022/11/06 08:08:04;;;;;;;12.93;7.85;;;;;;;;;;5072315;28;20040;-70
2022/11/06 08:10:30;;;;;;;12.75;7.22;;;;;;;;;;5072230;28;20395;-69
2022/11/06 08:12:59;;;;;;;9.35;5.22;;;;;;;;;;5072137;28;20040;-70
2022/11/06 08:15:25;;;;;;;11.75;7.10;;;;;;;;;;5072379;28;20029;-70
2022/11/06 08:17:51;;;;;;;9.60;5.97;;;;;;;;;;5072024;28;20067;-69
2022/11/06 08:20:18;;;;;;;9.95;6.20;;;;;;;;;;5071665;28;20416;-70
2022/11/06 08:22:44;;;;;;;11.95;6.00;;;;;;;;;;5070549;28;20505;-70
2022/11/06 08:25:10;;;;;;;10.48;6.68;;;;;;;;;;5066289;28;20056;-69
2022/11/06 08:27:36;;;;;;;10.10;4.78;;;;;;;;;;5051788;28;20102;-70
2022/11/06 08:30:03;;;;;;;9.55;5.95;;;;;;;;;;5052011;28;20537;-70
2022/11/06 08:32:29;;;;;;;11.00;7.22;;;;;;;;;;5069521;28;20444;-69
2022/11/06 08:34:55;;;;;;;12.68;7.32;;;;;;;;;;5060490;28;20021;-70
2022/11/06 08:37:21;;;;;;;13.23;7.63;;;;;;;;;;5064295;28;20181;-70
2022/11/06 08:39:47;;;;;;;16.98;10.85;;;;;;;;;;5062987;28;20150;-70
2022/11/06 08:42:12;;;;;;;10.43;5.53;;;;;;;;;;5059482;28;20060;-70
2022/11/06 08:44:41;;;;;;;8.20;5.40;;;;;;;;;;5071953;28;20024;-70
2022/11/06 08:47:07;;;;;;;13.68;5.93;;;;;;;;;;5072126;28;20028;-70
2022/11/06 08:49:33;;;;;;;7.78;4.63;;;;;;;;;;5072166;28;20027;-70
2022/11/06 08:51:59;;;;;;;10.18;4.28;;;;;;;;;;5071852;28;20037;-70
2022/11/06 08:54:25;;;;;;;11.85;4.70;;;;;;;;;;5048702;28;20497;-70
2022/11/06 08:56:51;;;;;;;11.32;4.55;;;;;;;;;;5054165;28;20110;-70
2022/11/06 08:59:17;;;;;;;7.60;3.90;;;;;;;;;;5054871;28;20071;-70
2022/11/06 09:01:42;;;;;;;7.15;3.25;;;;;;;;;;5055640;28;20029;-70
2022/11/06 09:04:08;;;;;;;7.93;2.80;;;;;;;;;;5055918;28;20386;-71
2022/11/06 09:06:34;;;;;;;7.90;3.70;;;;;;;;;;5055176;28;20045;-69
2022/11/06 09:09:00;;;;;;;7.53;3.90;;;;;;;;;;5059934;28;20021;-70
2022/11/06 09:11:26;;;;;;;8.93;3.13;;;;;;;;;;5061455;28;20073;-69
2022/11/06 09:13:52;;;;;;;5.25;3.15;;;;;;;;;;5066924;28;20398;-70
2022/11/06 09:16:17;;;;;;;10.38;3.65;;;;;;;;;;5055611;28;20071;-70
2022/11/06 09:18:43;;;;;;;9.77;3.17;;;;;;;;;;5055556;28;20103;-70
2022/11/06 09:21:09;;;;;;;8.63;3.50;;;;;;;;;;5056008;28;20043;-70
2022/11/06 09:27:16;;;;;;;9.07;3.95;;;;;;;;;;5071936;28;20040;-71
2022/11/06 09:35:58;;;;;;;9.40;3.55;;;;;;;;;;4850134;28;20119;-72
2022/11/06 09:38:24;;;;;;;7.00;3.50;;;;;;;;;;5019760;28;20034;-73
2022/11/06 09:40:59;;;;;;;7.45;3.20;;;;;;;;;;5037177;28;20032;-73
2022/11/06 09:43:57;;;;;;;10.18;3.85;;;;;;;;;;5034955;28;20521;-73
2022/11/06 09:46:27;;;;;;;10.68;4.13;;;;;;;;;;5034837;28;20069;-72
2022/11/06 09:49:25;;;;;;;9.57;5.00;;;;;;;;;;5034856;28;20487;-72
2022/11/06 09:52:05;;;;;;;12.70;5.10;;;;;;;;;;5029191;28;20410;-73
2022/11/06 09:54:40;;;;;;;7.55;4.93;;;;;;;;;;5035537;28;20090;-72
2022/11/06 09:57:22;;;;;;;14.25;5.10;;;;;;;;;;5030012;28;20453;-73
2022/11/06 09:59:49;;;;;;;15.88;6.68;;;;;;;;;;5033547;28;20560;-73
2022/11/06 10:02:23;;;;;;;11.55;6.80;;;;;;;;;;5035532;28;20047;-74
2022/11/06 10:04:57;;;;;;;13.80;6.50;;;;;;;;;;5034456;28;20124;-71
2022/11/06 10:07:31;;;;;;;15.80;6.00;;;;;;;;;;5017189;28;20476;-73
2022/11/06 10:09:58;;;;;;;14.88;5.82;;;;;;;;;;5038766;28;20387;-72
2022/11/06 10:21:05;;;;;;;11.55;5.45;;;;;;;;;;5842008;22;20053;-70
2022/11/06 10:24:09;;;;;;;13.65;5.80;;;;;;;;;;4966139;28;20136;-71
2022/11/06 10:33:56;;;;;;;12.90;5.28;;;;;;;;;;4899764;29;20055;-70
2022/11/06 10:36:34;;;;;;;10.05;5.18;;;;;;;;;;4992381;28;20402;-70
2022/11/06 10:39:02;;;;;;;9.77;4.50;;;;;;;;;;4994605;28;20054;-70
2022/11/06 10:41:33;;;;;;;11.43;5.10;;;;;;;;;;4977367;28;20422;-70
2022/11/06 10:44:04;;;;;;;11.95;6.28;;;;;;;;;;4994497;28;20054;-71
2022/11/06 10:46:35;;;;;;;14.93;6.47;;;;;;;;;;5007036;28;20034;-70
2022/11/06 10:49:13;;;;;;;13.68;6.72;;;;;;;;;;5032216;28;20444;-71
2022/11/06 10:52:06;;;;;;;13.32;6.80;;;;;;;;;;5033340;28;20038;-71
2022/11/06 10:54:37;;;;;;;15.88;7.05;;;;;;;;;;4931221;28;20073;-70
2022/11/06 10:57:27;;;;;;;16.13;8.32;;;;;;;;;;5004058;28;20061;-70
2022/11/06 10:59:53;;;;;;;14.20;6.82;;;;;;;;;;5002491;28;20042;-70
2022/11/06 11:02:32;;;;;;;17.15;7.95;;;;;;;;;;5007632;28;20029;-71
2022/11/06 11:04:58;;;;;;;12.80;7.13;;;;;;;;;;5003945;28;20037;-70
2022/11/06 11:07:28;;;;;;;18.00;6.35;;;;;;;;;;5011049;28;20033;-70
2022/11/06 11:09:54;;;;;;;13.48;6.28;;;;;;;;;;5013710;28;20041;-71
2022/11/06 11:12:23;;;;;;;13.10;7.43;;;;;;;;;;5012965;28;20083;-70
2022/11/06 11:15:18;;;;;;;14.93;8.43;;;;;;;;;;5013685;28;20069;-71
2022/11/06 11:18:08;;;;;;;16.55;7.55;;;;;;;;;;5013773;28;20377;-71
2022/11/06 11:20:37;;;;;;;14.63;7.68;;;;;;;;;;5012828;28;20045;-71
2022/11/06 11:23:22;;;;;;;19.35;7.60;;;;;;;;;;5009523;28;20026;-71
2022/11/06 11:25:53;;;;;;;20.27;9.38;;;;;;;;;;5017593;28;20072;-71
2022/11/06 11:28:31;;;;;;;13.15;7.75;;;;;;;;;;5012670;28;20061;-69
2022/11/06 11:31:15;;;;;;;13.38;7.32;;;;;;;;;;5012832;28;20026;-71
2022/11/06 11:33:49;;;;;;;15.32;6.22;;;;;;;;;;5004706;28;20034;-71
2022/11/06 11:36:15;;;;;;;14.00;5.30;;;;;;;;;;5010935;28;20112;-71
2022/11/06 11:38:42;;;;;;;16.67;8.13;;;;;;;;;;5012997;28;20021;-70
2022/11/06 11:41:22;;;;;;;12.45;6.47;;;;;;;;;;5012545;28;20046;-71
2022/11/06 11:44:02;;;;;;;9.10;4.20;;;;;;;;;;5012687;28;20050;-71
2022/11/06 11:46:28;;;;;;;9.90;2.50;;;;;;;;;;5012746;28;20376;-70
2022/11/06 11:48:57;;;;;;;11.60;4.40;;;;;;;;;;5014141;28;20049;-70
2022/11/06 11:51:45;;;;;;;11.07;4.28;;;;;;;;;;5018261;28;20038;-71
2022/11/06 11:56:55;;;;;;;10.32;3.25;;;;;;;;;;4970240;28;20410;-69
2022/11/06 11:59:24;;;;;;;21.57;10.30;;;;;;;;;;4972868;28;20400;-70
2022/11/06 12:01:51;;;;;;;24.42;12.52;;;;;;;;;;4972686;28;20118;-69
2022/11/06 12:04:40;;;;;;;20.80;9.88;;;;;;;;;;4971999;28;20117;-71
2022/11/06 12:07:20;;;;;;;25.13;12.68;;;;;;;;;;4972938;28;20035;-70
2022/11/06 12:09:46;;;;;;;29.80;15.30;;;;;;;;;;4973464;28;20038;-69
2022/11/06 12:12:24;;;;;;;24.73;14.60;;;;;;;;;;4973319;28;20022;-70
2022/11/06 12:15:28;;;;;;;32.03;19.45;;;;;;;;;;4973699;28;20353;-69
2022/11/06 12:18:01;;;;;;;22.27;15.07;;;;;;;;;;4894946;29;20517;-69
2022/11/06 12:20:37;;;;;;;;;;;;;;;;;;4946098;29;20118;-69
2022/11/06 12:23:05;;;;;;;21.15;13.02;;;;;;;;;;4953805;29;19942;-70
2022/11/06 12:25:38;;;;;;;20.50;11.65;;;;;;;;;;4953971;29;20051;-68
2022/11/06 12:28:12;;;;;;;20.55;12.43;;;;;;;;;;4965081;28;20022;-69
2022/11/06 12:30:41;;;;;;;23.00;12.52;;;;;;;;;;4990458;28;20030;-70
2022/11/06 12:33:19;;;;;;;22.52;11.65;;;;;;;;;;4976819;28;20480;-69
2022/11/06 12:35:57;;;;;;;20.60;11.65;;;;;;;;;;4971439;28;20035;-69
2022/11/06 12:38:49;;;;;;;18.88;11.52;;;;;;;;;;4972918;28;20114;-69
2022/11/06 12:41:47;;;;;;;21.20;11.88;;;;;;;;;;4966270;28;20050;-69
2022/11/06 12:44:15;;;;;;;15.73;10.00;;;;;;;;;;4965050;28;20078;-69
2022/11/06 12:46:44;;;;;;;19.00;9.75;;;;;;;;;;4972427;28;20027;-68
2022/11/06 12:49:28;;;;;;;15.65;9.00;;;;;;;;;;4973179;28;20085;-68
2022/11/06 12:52:18;;;;;;;19.88;8.80;;;;;;;;;;4972197;28;20031;-69
2022/11/06 12:55:11;;;;;;;17.63;8.35;;;;;;;;;;4970724;28;20381;-70
2022/11/06 12:58:03;;;;;;;15.50;8.20;;;;;;;;;;4971837;28;20126;-70
2022/11/06 13:00:41;;;;;;;17.00;7.68;;;;;;;;;;4972393;28;20042;-70
2022/11/06 13:03:25;;;;;;;12.85;7.15;;;;;;;;;;4972972;28;20097;-70
2022/11/06 13:06:24;;;;;;;12.70;5.78;;;;;;;;;;4972844;28;20038;-70
2022/11/06 13:08:53;;;;;;;16.85;8.30;;;;;;;;;;4942835;28;20043;-70
2022/11/06 13:11:47;;;;;;;15.52;6.82;;;;;;;;;;4970984;28;20033;-69
2022/11/06 13:14:13;;;;;;;;;;;;;;;;;;4970053;28;20042;-70
2022/11/06 13:16:50;;;;;;;14.98;4.50;;;;;;;;;;4972529;28;19910;-70
2022/11/06 13:19:29;;;;;;;10.65;2.83;;;;;;;;;;4969245;28;20085;-69
2022/11/06 13:22:21;;;;;;;13.30;4.57;;;;;;;;;;4971570;28;20493;-69
2022/11/06 13:24:56;;;;;;;12.80;3.75;;;;;;;;;;4957041;28;20104;-71
2022/11/06 13:27:48;;;;;;;10.57;4.05;;;;;;;;;;4972350;28;20050;-71
2022/11/06 13:30:17;;;;;;;12.35;4.28;;;;;;;;;;4964887;28;20430;-70
2022/11/06 13:33:11;;;;;;;18.20;4.10;;;;;;;;;;4972315;28;20022;-70
2022/11/06 13:35:40;;;;;;;;;;;;;;;;;;4969855;28;20042;-70
2022/11/06 13:38:07;;;;;;;14.52;4.43;;;;;;;;;;4972143;28;19910;-70
2022/11/06 13:40:39;;;;;;;7.95;3.63;;;;;;;;;;4972671;28;20046;-70
2022/11/06 13:43:07;;;;;;;13.77;4.28;;;;;;;;;;4974204;28;20054;-70
2022/11/06 13:45:53;;;;;;;11.77;6.25;;;;;;;;;;4975715;28;20026;-70
2022/11/06 13:48:32;;;;;;;13.13;5.03;;;;;;;;;;4975658;28;20043;-70
2022/11/06 13:51:15;;;;;;;15.20;6.93;;;;;;;;;;4975537;28;20035;-69
2022/11/06 13:54:03;;;;;;;14.18;5.22;;;;;;;;;;4975843;28;20031;-70
2022/11/06 13:56:56;;;;;;;12.98;3.45;;;;;;;;;;4973282;28;20130;-70
2022/11/06 13:59:49;;;;;;;11.55;4.00;;;;;;;;;;4975627;28;20464;-70
2022/11/06 14:02:18;;;;;;;13.02;4.13;;;;;;;;;;4975604;28;20039;-69
2022/11/06 14:05:25;;;;;;;16.33;4.53;;;;;;;;;;4974869;28;20034;-70
2022/11/06 14:07:53;;;;;;;12.52;3.67;;;;;;;;;;4956670;29;20086;-70
2022/11/06 14:10:33;;;;;;;11.55;3.10;;;;;;;;;;4956528;29;20109;-70
2022/11/06 14:13:00;;;;;;;11.20;2.92;;;;;;;;;;4956072;29;20106;-70
2022/11/06 14:15:32;;;;;;;11.00;2.58;;;;;;;;;;4956974;28;20051;-70
2022/11/06 14:18:00;;;;;;;11.88;2.97;;;;;;;;;;4975332;28;20034;-71
2022/11/06 14:20:31;;;;;;;7.85;2.50;;;;;;;;;;4957846;28;20033;-70
2022/11/06 14:23:29;;;;;;;12.43;3.78;;;;;;;;;;4975095;28;20030;-70
2022/11/06 14:26:03;;;;;;;11.05;3.53;;;;;;;;;;4954976;28;20264;-71
2022/11/06 14:28:32;;;;;;;12.38;3.80;;;;;;;;;;4970606;28;20035;-71
2022/11/06 14:30:58;;;;;;;12.23;3.88;;;;;;;;;;4955674;29;20038;-69
2022/11/06 14:33:48;;;;;;;16.00;5.00;;;;;;;;;;4962790;28;20043;-71
2022/11/06 14:36:23;;;;;;;13.27;3.85;;;;;;;;;;4965565;28;20123;-71
2022/11/06 14:38:49;;;;;;;14.20;5.07;;;;;;;;;;4974898;28;20122;-71
2022/11/06 14:41:33;;;;;;;17.80;6.35;;;;;;;;;;4974476;28;20023;-72
2022/11/06 14:44:04;;;;;;;20.13;6.18;;;;;;;;;;4974582;28;20030;-71
2022/11/06 14:46:31;;;;;;;13.27;4.80;;;;;;;;;;4974237;28;20030;-71
2022/11/06 14:49:08;;;;;;;13.63;5.38;;;;;;;;;;4974586;28;20054;-71
2022/11/06 14:51:35;;;;;;;13.40;6.43;;;;;;;;;;4973767;28;20447;-71
2022/11/06 14:54:20;;;;;;;17.83;7.20;;;;;;;;;;4971259;28;20027;-71
2022/11/06 14:56:52;;;;;;;15.27;7.47;;;;;;;;;;4971266;28;20340;-72
2022/11/06 14:59:28;;;;;;;19.17;9.02;;;;;;;;;;4972573;28;20050;-71
2022/11/06 15:02:02;;;;;;;22.70;9.00;;;;;;;;;;4972652;28;20066;-72
2022/11/06 15:04:30;;;;;;;16.00;6.93;;;;;;;;;;4971841;28;20033;-71
2022/11/06 15:07:07;;;;;;;18.35;5.95;;;;;;;;;;4970826;28;20031;-71
2022/11/06 15:09:35;;;;;;;11.68;6.03;;;;;;;;;;4973587;28;20101;-71
2022/11/06 15:12:06;;;;;;;15.93;6.63;;;;;;;;;;4971319;28;20362;-71
2022/11/06 15:14:32;;;;;;;10.95;3.70;;;;;;;;;;4971280;28;20519;-69
2022/11/06 15:17:10;;;;;;;11.15;3.70;;;;;;;;;;4972699;28;20046;-71
2022/11/06 15:19:45;;;;;;;9.45;2.58;;;;;;;;;;4968853;28;20547;-72
2022/11/06 15:22:14;;;;;;;7.25;3.42;;;;;;;;;;4970274;28;20030;-71
2022/11/06 15:25:05;;;;;;;8.38;3.05;;;;;;;;;;4968846;28;20035;-70
2022/11/06 15:27:38;;;;;;;8.55;2.50;;;;;;;;;;4962881;28;20042;-72
2022/11/06 15:30:04;;;;;;;8.10;2.15;;;;;;;;;;4973394;28;20070;-71
2022/11/06 15:32:37;;;;;;;10.60;2.42;;;;;;;;;;4973012;28;20038;-70
2022/11/06 15:35:11;;;;;;;9.88;2.50;;;;;;;;;;4971735;28;20047;-69
2022/11/06 15:37:50;;;;;;;6.47;2.67;;;;;;;;;;4964587;28;20077;-70